Time;durP1;ratioP1;P1;durP2;ratioP2;P2;SDS_P1;SDS_P2;PMS_P1;PMS_P2;Temp;Humidity;BMP_temperature;BMP_pressure;BME280_temperature;BME280_humidity;BME280_pressure;Samples;Min_cycle;Max_cycle;Signal;HPM_P1;HPM_P2
2023/12/16 00:00:09;;;;;;;28.17;7.45;;;8.10;99.90;;;;;;5058840;28;20063;-58
2023/12/16 00:02:35;;;;;;;21.25;6.82;;;8.10;99.90;;;;;;5049940;28;20487;-58
2023/12/16 00:05:00;;;;;;;25.58;7.68;;;8.10;99.90;;;;;;5059102;28;20032;-60
2023/12/16 00:07:26;;;;;;;25.67;6.85;;;8.10;99.90;;;;;;5044600;28;20021;-58
2023/12/16 00:09:52;;;;;;;23.75;6.97;;;8.00;99.90;;;;;;5049022;28;20112;-61
2023/12/16 00:12:17;;;;;;;28.20;6.65;;;7.90;99.90;;;;;;5052574;28;20109;-61
2023/12/16 00:14:43;;;;;;;37.70;7.53;;;7.80;99.90;;;;;;5054563;28;20164;-59
2023/12/16 00:17:08;;;;;;;20.55;7.28;;;7.80;99.90;;;;;;5044894;28;20419;-58
2023/12/16 00:19:34;;;;;;;22.27;7.13;;;7.70;99.90;;;;;;5046363;28;20029;-58
2023/12/16 00:22:00;;;;;;;22.30;7.22;;;7.70;99.90;;;;;;5046552;28;20517;-60
2023/12/16 00:24:25;;;;;;;24.77;6.50;;;7.60;99.90;;;;;;5051852;28;20045;-60
2023/12/16 00:26:51;;;;;;;24.00;6.97;;;7.60;99.90;;;;;;5048247;28;20086;-58
2023/12/16 00:29:16;;;;;;;27.85;7.80;;;7.60;99.90;;;;;;5053152;28;20036;-58
2023/12/16 00:31:43;;;;;;;21.50;7.07;;;7.60;99.90;;;;;;5048454;28;20028;-58
2023/12/16 00:34:08;;;;;;;30.33;7.30;;;7.70;99.90;;;;;;5047316;28;20113;-61
2023/12/16 00:36:34;;;;;;;22.20;6.63;;;7.70;99.90;;;;;;5045406;28;20100;-60
2023/12/16 00:38:59;;;;;;;26.52;6.43;;;7.80;99.90;;;;;;5054016;28;20030;-61
2023/12/16 00:41:25;;;;;;;27.33;6.68;;;7.80;99.90;;;;;;5055512;28;20474;-58
2023/12/16 00:43:51;;;;;;;23.73;7.43;;;7.90;99.90;;;;;;5053864;28;20030;-60
2023/12/16 00:46:16;;;;;;;27.10;6.90;;;7.80;99.90;;;;;;5045482;28;20146;-60
2023/12/16 00:48:43;;;;;;;33.30;6.93;;;7.90;99.90;;;;;;5048736;28;20037;-60
2023/12/16 00:51:08;;;;;;;27.08;6.40;;;7.90;99.90;;;;;;5049569;28;20037;-60
2023/12/16 00:53:34;;;;;;;20.17;5.88;;;7.90;99.90;;;;;;5050707;28;20028;-60
2023/12/16 00:55:59;;;;;;;17.90;5.88;;;7.90;99.90;;;;;;5049862;28;20020;-59
2023/12/16 00:58:25;;;;;;;20.85;6.20;;;7.90;99.90;;;;;;5049153;28;20423;-60
2023/12/16 01:00:50;;;;;;;20.27;6.15;;;7.90;99.90;;;;;;5055462;28;20075;-58
2023/12/16 01:03:16;;;;;;;24.38;5.88;;;7.90;99.90;;;;;;5044941;28;20036;-60
2023/12/16 01:05:41;;;;;;;26.35;6.18;;;7.90;99.90;;;;;;5055072;28;20044;-60
2023/12/16 01:08:07;;;;;;;24.75;6.88;;;7.90;99.90;;;;;;5045683;28;20052;-60
2023/12/16 01:10:32;;;;;;;23.42;5.93;;;7.90;99.90;;;;;;5044059;28;20043;-62
2023/12/16 01:12:58;;;;;;;30.45;7.05;;;7.90;99.90;;;;;;5048087;28;20017;-58
2023/12/16 01:15:24;;;;;;;20.13;5.85;;;7.90;99.90;;;;;;5052714;28;20020;-61
2023/12/16 01:17:49;;;;;;;28.77;7.10;;;7.90;99.90;;;;;;5043920;28;20495;-60
2023/12/16 01:20:15;;;;;;;22.63;5.55;;;7.90;99.90;;;;;;5049814;28;20338;-59
2023/12/16 01:22:41;;;;;;;27.15;5.80;;;7.90;99.90;;;;;;5043439;28;20018;-61
2023/12/16 01:25:08;;;;;;;20.73;6.35;;;7.90;99.90;;;;;;5059295;28;20021;-59
2023/12/16 01:27:33;;;;;;;27.05;5.28;;;8.00;99.90;;;;;;5045891;28;20040;-57
2023/12/16 01:29:59;;;;;;;28.50;5.60;;;7.90;99.90;;;;;;5046225;28;20561;-59
2023/12/16 01:32:24;;;;;;;23.63;6.25;;;7.90;99.90;;;;;;5051467;28;20578;-58
2023/12/16 01:34:50;;;;;;;26.67;5.35;;;7.90;99.90;;;;;;5054497;28;20044;-61
2023/12/16 01:37:15;;;;;;;19.85;4.95;;;7.90;99.90;;;;;;5050548;28;20108;-60
2023/12/16 01:39:41;;;;;;;26.08;6.63;;;8.00;99.90;;;;;;5048484;28;20057;-60
2023/12/16 01:42:06;;;;;;;19.60;5.88;;;7.90;99.90;;;;;;5046330;28;20059;-60
2023/12/16 01:44:32;;;;;;;21.83;5.15;;;7.90;99.90;;;;;;5051943;28;20045;-60
2023/12/16 01:46:58;;;;;;;27.98;6.10;;;7.90;99.90;;;;;;5058736;28;20040;-61
2023/12/16 01:49:24;;;;;;;20.98;5.47;;;7.90;99.90;;;;;;5047179;28;20029;-60
2023/12/16 01:51:50;;;;;;;24.98;5.82;;;7.90;99.90;;;;;;5045976;28;20116;-59
2023/12/16 01:54:16;;;;;;;16.02;5.72;;;7.90;99.90;;;;;;5049984;28;20025;-60
2023/12/16 01:56:43;;;;;;;18.52;6.40;;;7.90;99.90;;;;;;5046782;28;20483;-60
2023/12/16 01:59:09;;;;;;;19.02;5.57;;;7.90;99.90;;;;;;5048587;28;20028;-61
2023/12/16 02:01:35;;;;;;;13.93;5.85;;;8.00;99.90;;;;;;5047001;28;20052;-59
2023/12/16 02:04:01;;;;;;;25.05;5.30;;;8.00;99.90;;;;;;5050357;28;20044;-60
2023/12/16 02:06:27;;;;;;;21.13;6.47;;;7.90;99.90;;;;;;5046605;28;20029;-60
2023/12/16 02:08:52;;;;;;;16.02;5.38;;;7.90;99.90;;;;;;5052655;28;20059;-60
2023/12/16 02:11:18;;;;;;;22.70;6.38;;;7.90;99.90;;;;;;5045922;28;20123;-59
2023/12/16 02:13:44;;;;;;;16.50;5.80;;;7.90;99.90;;;;;;5050492;28;20117;-60
2023/12/16 02:16:10;;;;;;;21.90;5.80;;;7.90;99.90;;;;;;5048913;28;20024;-61
2023/12/16 02:18:38;;;;;;;20.55;5.55;;;7.90;99.90;;;;;;5047251;28;20040;-59
2023/12/16 02:21:04;;;;;;;17.55;5.95;;;7.90;99.90;;;;;;5047482;28;20391;-60
2023/12/16 02:23:30;;;;;;;18.35;4.93;;;7.90;99.90;;;;;;5051314;28;20487;-59
2023/12/16 02:25:55;;;;;;;18.60;5.10;;;7.90;99.90;;;;;;5056600;28;20494;-56
2023/12/16 02:28:21;;;;;;;24.00;5.43;;;7.90;99.90;;;;;;5045146;28;20398;-60
2023/12/16 02:30:46;;;;;;;33.40;5.80;;;7.90;99.90;;;;;;5050032;28;20030;-59
2023/12/16 02:33:12;;;;;;;22.10;5.63;;;7.90;99.90;;;;;;5056046;28;20531;-60
2023/12/16 02:35:38;;;;;;;22.90;6.05;;;7.90;99.90;;;;;;5052571;28;20483;-56
2023/12/16 02:38:03;;;;;;;22.58;5.38;;;7.90;99.90;;;;;;5051183;28;20017;-60
2023/12/16 02:40:29;;;;;;;30.95;5.40;;;7.90;99.90;;;;;;5051049;28;20033;-57
2023/12/16 02:42:54;;;;;;;23.20;5.97;;;7.80;99.90;;;;;;5053664;28;20056;-58
2023/12/16 02:45:20;;;;;;;21.73;5.65;;;7.80;99.90;;;;;;5049101;28;20453;-61
2023/12/16 02:47:45;;;;;;;34.03;5.50;;;7.80;99.90;;;;;;5054417;28;20082;-60
2023/12/16 02:50:11;;;;;;;18.83;5.88;;;7.80;99.90;;;;;;5049047;28;20031;-60
2023/12/16 02:52:37;;;;;;;19.67;4.72;;;7.80;99.90;;;;;;5052509;28;20098;-60
2023/12/16 02:55:02;;;;;;;19.38;5.65;;;7.80;99.90;;;;;;5055621;28;20028;-59
2023/12/16 02:57:28;;;;;;;17.45;4.82;;;7.80;99.90;;;;;;5049732;28;20029;-60
2023/12/16 02:59:53;;;;;;;25.40;5.25;;;7.80;99.90;;;;;;5049495;28;20094;-60
2023/12/16 03:02:19;;;;;;;20.00;4.50;;;7.80;99.90;;;;;;5052483;28;20510;-61
2023/12/16 03:04:45;;;;;;;25.63;4.75;;;7.80;99.90;;;;;;5051072;28;20037;-60
2023/12/16 03:07:11;;;;;;;25.30;5.95;;;7.80;99.90;;;;;;5051014;28;20522;-59
2023/12/16 03:09:36;;;;;;;25.73;4.88;;;7.80;99.90;;;;;;5050860;28;20033;-59
2023/12/16 03:12:04;;;;;;;25.30;4.75;;;7.80;99.90;;;;;;5060748;28;20506;-60
2023/12/16 03:14:29;;;;;;;26.88;4.80;;;7.80;99.90;;;;;;5061125;28;20012;-59
2023/12/16 03:16:55;;;;;;;27.60;5.38;;;7.80;99.90;;;;;;5055801;28;20451;-60
2023/12/16 03:19:20;;;;;;;14.95;4.50;;;7.90;99.90;;;;;;5058568;28;20029;-59
2023/12/16 03:21:46;;;;;;;16.30;4.78;;;7.90;99.90;;;;;;5052215;28;20033;-58
2023/12/16 03:24:12;;;;;;;27.23;5.78;;;7.90;99.90;;;;;;5050528;28;20068;-58
2023/12/16 03:26:38;;;;;;;22.13;5.03;;;7.90;99.90;;;;;;5060513;28;20032;-60
2023/12/16 03:29:03;;;;;;;16.60;4.25;;;7.80;99.90;;;;;;5052835;28;20045;-60
2023/12/16 03:31:29;;;;;;;17.90;5.30;;;7.90;99.90;;;;;;5051633;28;20028;-61
2023/12/16 03:33:54;;;;;;;26.60;6.28;;;7.80;99.90;;;;;;5057760;28;20021;-60
2023/12/16 03:36:20;;;;;;;20.33;4.68;;;7.80;99.90;;;;;;5056013;28;20016;-58
2023/12/16 03:38:46;;;;;;;26.85;5.72;;;7.80;99.90;;;;;;5053350;28;20028;-61
2023/12/16 03:41:14;;;;;;;26.98;5.47;;;7.80;99.90;;;;;;5052856;28;20048;-61
2023/12/16 03:43:40;;;;;;;12.25;4.93;;;7.80;99.90;;;;;;5052304;28;20500;-59
2023/12/16 03:46:07;;;;;;;15.70;4.80;;;7.80;99.90;;;;;;5044172;28;20072;-61
2023/12/16 03:48:33;;;;;;;17.15;5.07;;;7.80;99.90;;;;;;5053052;28;20047;-58
2023/12/16 03:50:59;;;;;;;18.08;5.13;;;7.70;99.90;;;;;;5060625;28;20067;-60
2023/12/16 03:53:24;;;;;;;19.30;4.55;;;7.80;99.90;;;;;;5051956;28;20163;-61
2023/12/16 03:55:50;;;;;;;21.10;4.47;;;7.80;99.90;;;;;;5056069;28;20499;-56
2023/12/16 03:58:16;;;;;;;16.20;4.22;;;7.90;99.90;;;;;;5056351;28;20033;-58
2023/12/16 04:00:41;;;;;;;30.00;5.93;;;7.80;99.90;;;;;;5055404;28;20110;-59
2023/12/16 04:03:07;;;;;;;11.52;4.25;;;7.90;99.90;;;;;;5053445;28;20398;-60
2023/12/16 04:05:32;;;;;;;15.55;4.13;;;7.90;99.90;;;;;;5046561;28;20036;-60
2023/12/16 04:07:58;;;;;;;12.60;4.15;;;7.80;99.90;;;;;;5048400;28;20486;-59
2023/12/16 04:10:23;;;;;;;19.58;4.65;;;7.80;99.90;;;;;;5053972;28;20029;-60
2023/12/16 04:12:49;;;;;;;17.23;4.20;;;7.80;99.90;;;;;;5056156;28;20032;-60
2023/12/16 04:15:14;;;;;;;16.05;3.47;;;7.80;99.90;;;;;;5048329;28;20024;-60
2023/12/16 04:17:40;;;;;;;21.05;4.03;;;7.90;99.90;;;;;;5048503;28;20040;-61
2023/12/16 04:20:06;;;;;;;26.73;4.75;;;7.90;99.90;;;;;;5049830;28;20402;-60
2023/12/16 04:22:32;;;;;;;21.52;3.90;;;7.90;99.90;;;;;;5048541;28;20036;-60
2023/12/16 04:24:57;;;;;;;22.73;4.35;;;7.80;99.90;;;;;;5051771;28;20028;-59
2023/12/16 04:27:24;;;;;;;22.83;4.30;;;7.80;99.90;;;;;;5047375;28;20021;-60
2023/12/16 04:29:50;;;;;;;16.20;3.50;;;7.80;99.90;;;;;;5056344;28;20053;-60
2023/12/16 04:32:15;;;;;;;15.23;4.13;;;7.70;99.90;;;;;;5049462;28;20447;-61
2023/12/16 04:34:41;;;;;;;17.35;5.30;;;7.70;99.90;;;;;;5056404;28;20086;-59
2023/12/16 04:37:06;;;;;;;13.05;4.85;;;7.80;99.90;;;;;;5054231;28;20032;-61
2023/12/16 04:39:32;;;;;;;27.08;5.97;;;7.70;99.90;;;;;;5049484;28;20064;-56
2023/12/16 04:41:57;;;;;;;24.48;4.90;;;7.70;99.90;;;;;;5050472;28;20036;-59
2023/12/16 04:44:23;;;;;;;22.50;4.60;;;7.70;99.90;;;;;;5056353;28;20060;-61
2023/12/16 04:46:48;;;;;;;17.75;3.88;;;7.70;99.90;;;;;;5052265;28;20056;-60
2023/12/16 04:49:14;;;;;;;12.82;3.90;;;7.70;99.90;;;;;;5048437;28;20381;-60
2023/12/16 04:51:39;;;;;;;13.20;3.50;;;7.70;99.90;;;;;;5049201;28;20391;-61
2023/12/16 04:54:05;;;;;;;23.50;4.45;;;7.70;99.90;;;;;;5050914;28;20387;-60
2023/12/16 04:56:30;;;;;;;11.30;3.58;;;7.60;99.90;;;;;;5053483;28;20020;-61
2023/12/16 04:58:56;;;;;;;16.38;4.22;;;7.70;99.90;;;;;;5052974;28;20025;-61
2023/12/16 05:01:21;;;;;;;16.50;3.60;;;7.60;99.90;;;;;;5050253;28;20510;-62
2023/12/16 05:03:47;;;;;;;23.67;4.43;;;7.60;99.90;;;;;;5048749;28;21043;-61
2023/12/16 05:06:13;;;;;;;13.57;3.50;;;7.70;99.90;;;;;;5048132;28;20021;-59
2023/12/16 05:08:39;;;;;;;13.00;3.72;;;7.70;99.90;;;;;;5051030;28;20041;-61
2023/12/16 05:11:04;;;;;;;12.32;3.13;;;7.70;99.90;;;;;;5057248;28;20108;-61
2023/12/16 05:13:30;;;;;;;18.40;3.28;;;7.70;99.90;;;;;;5044887;28;20032;-60
2023/12/16 05:15:55;;;;;;;8.48;3.08;;;7.70;99.90;;;;;;5051260;28;20412;-60
2023/12/16 05:18:23;;;;;;;18.65;4.13;;;7.70;99.90;;;;;;5049373;28;20033;-60
2023/12/16 05:20:49;;;;;;;27.30;4.72;;;7.70;99.90;;;;;;5049048;28;20384;-61
2023/12/16 05:23:14;;;;;;;17.73;3.08;;;7.70;99.90;;;;;;5047483;28;20025;-59
2023/12/16 05:25:41;;;;;;;19.42;3.30;;;7.70;99.90;;;;;;5061936;28;20048;-61
2023/12/16 05:28:07;;;;;;;13.38;3.42;;;7.70;99.90;;;;;;5046180;28;20059;-60
2023/12/16 05:30:32;;;;;;;17.98;3.92;;;7.80;99.90;;;;;;5053013;28;20060;-61
2023/12/16 05:32:58;;;;;;;20.95;3.67;;;7.70;99.90;;;;;;5054817;28;20035;-61
2023/12/16 05:35:23;;;;;;;13.75;3.05;;;7.80;99.90;;;;;;5045797;28;20041;-58
2023/12/16 05:37:49;;;;;;;13.40;2.80;;;7.70;99.90;;;;;;5054840;28;20035;-59
2023/12/16 05:40:15;;;;;;;10.93;3.05;;;7.70;99.90;;;;;;5048342;28;20026;-58
2023/12/16 05:42:40;;;;;;;23.73;5.00;;;7.80;99.90;;;;;;5050906;28;20026;-59
2023/12/16 05:45:07;;;;;;;16.88;3.17;;;7.70;99.90;;;;;;5057089;28;20106;-59
2023/12/16 05:47:33;;;;;;;16.40;3.17;;;7.80;99.90;;;;;;5047450;28;20128;-59
2023/12/16 05:49:58;;;;;;;17.05;3.60;;;7.80;99.90;;;;;;5048325;28;20498;-61
2023/12/16 05:52:24;;;;;;;14.50;4.45;;;7.80;99.90;;;;;;5046559;28;20041;-61
2023/12/16 05:54:50;;;;;;;13.68;2.97;;;7.80;99.90;;;;;;5048902;28;20553;-60
2023/12/16 05:57:15;;;;;;;9.73;2.85;;;7.80;99.90;;;;;;5054228;28;20032;-61
2023/12/16 05:59:40;;;;;;;26.95;3.47;;;7.80;99.90;;;;;;5046024;28;20033;-59
2023/12/16 06:02:06;;;;;;;17.45;3.17;;;7.90;99.90;;;;;;5052608;28;20372;-56
2023/12/16 06:04:31;;;;;;;19.25;3.03;;;7.90;99.90;;;;;;5054009;28;20037;-59
2023/12/16 06:06:57;;;;;;;14.52;3.03;;;7.90;99.90;;;;;;5061511;28;20086;-60
2023/12/16 06:09:23;;;;;;;13.77;2.80;;;7.90;99.90;;;;;;5053746;28;20097;-59
2023/12/16 06:11:48;;;;;;;13.98;2.30;;;7.90;99.90;;;;;;5054809;28;20459;-60
2023/12/16 06:14:14;;;;;;;19.67;2.92;;;7.80;99.90;;;;;;5052875;28;20029;-58
2023/12/16 06:16:39;;;;;;;18.30;2.85;;;7.90;99.90;;;;;;5054999;28;20452;-59
2023/12/16 06:19:05;;;;;;;13.63;3.05;;;7.90;99.90;;;;;;5050527;28;20044;-59
2023/12/16 06:21:30;;;;;;;17.15;3.00;;;7.90;99.90;;;;;;5058049;28;20091;-61
2023/12/16 06:23:58;;;;;;;8.52;2.30;;;7.80;99.90;;;;;;5053201;28;20131;-58
2023/12/16 06:26:24;;;;;;;17.83;3.13;;;7.80;99.90;;;;;;5054864;28;20036;-60
2023/12/16 06:28:49;;;;;;;13.43;2.67;;;7.80;99.90;;;;;;5055289;28;20115;-61
2023/12/16 06:31:16;;;;;;;19.23;2.78;;;7.80;99.90;;;;;;5059026;28;20495;-60
2023/12/16 06:33:42;;;;;;;12.32;3.08;;;7.70;99.90;;;;;;5044499;28;20025;-57
2023/12/16 06:36:07;;;;;;;13.95;3.13;;;7.70;99.90;;;;;;5050987;28;20410;-58
2023/12/16 06:38:33;;;;;;;19.33;3.78;;;7.70;99.90;;;;;;5048931;28;20039;-58
2023/12/16 06:40:58;;;;;;;10.10;3.17;;;7.70;99.90;;;;;;5053954;28;20024;-59
2023/12/16 06:43:24;;;;;;;10.73;2.70;;;7.90;99.90;;;;;;5052713;28;20025;-59
2023/12/16 06:45:49;;;;;;;11.18;2.70;;;7.90;99.90;;;;;;5052993;28;20427;-58
2023/12/16 06:48:15;;;;;;;13.43;3.35;;;7.90;99.90;;;;;;5053181;28;20063;-60
2023/12/16 06:50:41;;;;;;;17.95;2.45;;;7.80;99.90;;;;;;5051998;28;20056;-59
2023/12/16 06:53:06;;;;;;;15.93;3.38;;;7.90;99.90;;;;;;5048694;28;20075;-61
2023/12/16 06:55:32;;;;;;;13.52;2.92;;;7.80;99.90;;;;;;5054036;28;20037;-61
2023/12/16 06:57:57;;;;;;;12.15;3.67;;;7.90;99.90;;;;;;5050681;28;20591;-60
2023/12/16 07:00:23;;;;;;;13.02;2.63;;;7.90;99.90;;;;;;5052857;28;20073;-59
2023/12/16 07:02:48;;;;;;;16.48;3.65;;;7.90;99.90;;;;;;5054933;28;20029;-59
2023/12/16 07:05:14;;;;;;;19.30;3.70;;;8.00;99.90;;;;;;5053877;28;20029;-61
2023/12/16 07:07:39;;;;;;;19.73;3.40;;;8.00;99.90;;;;;;5053004;28;20380;-59
2023/12/16 07:10:08;;;;;;;12.77;3.75;;;7.90;99.90;;;;;;5048666;28;20033;-60
2023/12/16 07:12:34;;;;;;;8.02;2.55;;;7.90;99.90;;;;;;5050337;28;20136;-60
2023/12/16 07:14:59;;;;;;;25.30;3.50;;;7.90;99.90;;;;;;5045786;28;20113;-60
2023/12/16 07:17:25;;;;;;;15.38;2.67;;;7.90;99.90;;;;;;5048287;28;20395;-59
2023/12/16 07:19:50;;;;;;;16.55;3.35;;;7.90;99.90;;;;;;5049023;28;20033;-60
2023/12/16 07:22:16;;;;;;;12.80;3.95;;;8.00;99.90;;;;;;5054218;28;20032;-59
2023/12/16 07:24:42;;;;;;;20.17;3.78;;;8.00;99.90;;;;;;5049548;28;20368;-62
2023/12/16 07:27:08;;;;;;;14.32;3.08;;;8.00;99.90;;;;;;5054919;28;20032;-62
2023/12/16 07:29:34;;;;;;;15.50;4.15;;;8.00;99.90;;;;;;5049268;28;20214;-61
2023/12/16 07:32:00;;;;;;;12.38;3.47;;;8.00;99.90;;;;;;5058577;28;20024;-61
2023/12/16 07:34:26;;;;;;;24.17;3.97;;;8.00;99.90;;;;;;5044758;28;20028;-61
2023/12/16 07:36:52;;;;;;;17.10;3.40;;;8.00;99.90;;;;;;5055777;28;20040;-61
2023/12/16 07:39:18;;;;;;;13.48;3.42;;;7.90;99.90;;;;;;5051861;28;20024;-60
2023/12/16 07:41:43;;;;;;;22.42;3.92;;;7.90;99.90;;;;;;5056577;28;20091;-61
2023/12/16 07:44:09;;;;;;;10.77;3.60;;;8.00;99.90;;;;;;5050772;28;20028;-62
2023/12/16 07:46:34;;;;;;;10.43;2.95;;;8.00;99.90;;;;;;5052117;28;20025;-61
2023/12/16 07:49:00;;;;;;;20.33;3.75;;;7.90;99.90;;;;;;5044921;28;20490;-62
2023/12/16 07:51:25;;;;;;;18.17;3.53;;;7.90;99.90;;;;;;5051576;28;20060;-61
2023/12/16 07:53:53;;;;;;;15.63;3.58;;;8.00;99.90;;;;;;5043483;28;20018;-60
2023/12/16 07:56:23;;;;;;;13.93;3.40;;;7.90;99.90;;;;;;5050131;28;20526;-62
2023/12/16 07:58:50;;;;;;;17.35;4.03;;;7.90;99.90;;;;;;5053089;28;20454;-61
2023/12/16 08:01:17;;;;;;;21.55;3.75;;;7.80;99.90;;;;;;5055221;28;20017;-62
2023/12/16 08:03:43;;;;;;;23.40;3.63;;;7.80;99.90;;;;;;5050014;28;20068;-61
2023/12/16 08:06:09;;;;;;;23.48;5.32;;;7.80;99.90;;;;;;5055512;28;20078;-61
2023/12/16 08:08:36;;;;;;;33.20;4.20;;;7.80;99.90;;;;;;5053173;28;20029;-61
2023/12/16 08:11:01;;;;;;;12.45;3.72;;;7.80;99.90;;;;;;5062034;28;20047;-62
2023/12/16 08:13:27;;;;;;;28.23;4.13;;;7.70;99.90;;;;;;5050304;28;20028;-62
2023/12/16 08:15:52;;;;;;;13.82;3.63;;;7.60;99.90;;;;;;5053397;28;20096;-61
2023/12/16 08:18:18;;;;;;;11.82;3.63;;;7.60;99.90;;;;;;5054880;28;20407;-61
2023/12/16 08:20:43;;;;;;;18.45;4.03;;;7.60;99.90;;;;;;5054613;28;20407;-62
2023/12/16 08:23:09;;;;;;;15.32;4.88;;;7.50;99.90;;;;;;5048452;28;20031;-62
2023/12/16 08:25:37;;;;;;;12.88;3.60;;;7.60;99.90;;;;;;5047268;28;20033;-62
2023/12/16 08:28:03;;;;;;;19.17;5.03;;;7.50;99.90;;;;;;5051923;28;20016;-62
2023/12/16 08:30:29;;;;;;;19.50;4.32;;;7.50;99.90;;;;;;5047619;28;20120;-61
2023/12/16 08:32:54;;;;;;;15.05;3.05;;;7.40;99.90;;;;;;5051948;28;20054;-61
2023/12/16 08:35:20;;;;;;;21.17;3.92;;;7.40;99.90;;;;;;5047867;28;20021;-61
2023/12/16 08:37:45;;;;;;;17.75;3.35;;;7.40;99.90;;;;;;5061699;28;20021;-62
2023/12/16 08:40:11;;;;;;;23.88;4.28;;;7.40;99.90;;;;;;5045603;28;20549;-61
2023/12/16 08:42:41;;;;;;;23.83;5.65;;;7.40;99.90;;;;;;5057694;28;20078;-60
2023/12/16 08:45:07;;;;;;;19.52;3.53;;;7.50;99.90;;;;;;5049341;28;20472;-62
2023/12/16 08:47:32;;;;;;;12.88;3.22;;;7.50;99.90;;;;;;5055568;28;20088;-61
2023/12/16 08:49:58;;;;;;;20.85;3.75;;;7.50;99.90;;;;;;5047997;28;20037;-60
2023/12/16 08:52:23;;;;;;;24.27;4.03;;;7.50;99.90;;;;;;5055809;28;20094;-62
2023/12/16 08:54:49;;;;;;;13.27;3.90;;;7.50;99.90;;;;;;5054217;28;20173;-62
2023/12/16 08:57:14;;;;;;;14.52;3.13;;;7.60;99.90;;;;;;5061547;28;20020;-61
2023/12/16 08:59:40;;;;;;;11.32;2.78;;;7.60;99.90;;;;;;5053099;28;20087;-58
2023/12/16 09:02:06;;;;;;;12.15;3.45;;;7.60;99.90;;;;;;5060739;28;20078;-62
2023/12/16 09:04:32;;;;;;;15.32;3.92;;;7.60;99.90;;;;;;5043375;28;20487;-61
2023/12/16 09:06:57;;;;;;;27.38;4.28;;;7.60;99.90;;;;;;5053883;28;20040;-62
2023/12/16 09:09:23;;;;;;;9.50;3.47;;;7.60;99.90;;;;;;5046198;28;20028;-59
2023/12/16 09:11:48;;;;;;;20.52;4.28;;;7.50;99.90;;;;;;5054558;28;20100;-61
2023/12/16 09:14:14;;;;;;;16.90;3.67;;;7.60;99.90;;;;;;5053576;28;20028;-62
2023/12/16 09:16:40;;;;;;;19.58;3.58;;;7.70;99.90;;;;;;5059490;28;20119;-60
2023/12/16 09:19:07;;;;;;;19.92;4.00;;;7.70;99.90;;;;;;5049411;28;20138;-59
2023/12/16 09:21:33;;;;;;;21.70;4.25;;;7.80;99.90;;;;;;5056065;28;20118;-60
2023/12/16 09:23:59;;;;;;;21.45;3.58;;;8.00;99.90;;;;;;5048291;28;20028;-62
2023/12/16 09:26:24;;;;;;;20.08;3.58;;;8.10;99.90;;;;;;5057928;28;20032;-60
2023/12/16 09:28:50;;;;;;;19.17;3.70;;;8.20;99.90;;;;;;5048560;28;20634;-60
2023/12/16 09:31:18;;;;;;;16.02;3.35;;;8.30;99.90;;;;;;5047851;28;20041;-62
2023/12/16 09:33:44;;;;;;;25.13;4.30;;;8.40;99.90;;;;;;5050036;28;20017;-61
2023/12/16 09:36:16;;;;;;;15.18;4.05;;;8.50;99.90;;;;;;5047133;28;20113;-62
2023/12/16 09:38:42;;;;;;;15.00;3.63;;;8.60;99.90;;;;;;5040855;28;20017;-62
2023/12/16 09:41:22;;;;;;;17.77;3.75;;;8.60;99.90;;;;;;5052555;28;20030;-61
2023/12/16 09:43:52;;;;;;;18.85;2.47;;;8.70;99.90;;;;;;5047503;28;20083;-61
2023/12/16 09:46:20;;;;;;;28.83;4.68;;;8.90;99.90;;;;;;5045091;28;20113;-61
2023/12/16 09:48:46;;;;;;;13.30;3.65;;;9.00;99.90;;;;;;5056437;28;20025;-61
2023/12/16 09:51:11;;;;;;;21.20;3.90;;;9.00;99.90;;;;;;5040428;28;20029;-61
2023/12/16 09:53:37;;;;;;;16.08;3.65;;;9.00;99.90;;;;;;5057640;28;20102;-62
2023/12/16 09:56:02;;;;;;;18.38;3.08;;;9.10;99.90;;;;;;5046004;28;20454;-62
2023/12/16 09:58:31;;;;;;;21.92;4.80;;;9.00;99.90;;;;;;5056848;28;20107;-61
2023/12/16 10:00:57;;;;;;;18.38;2.83;;;9.00;99.90;;;;;;5049930;28;20029;-61
2023/12/16 10:03:23;;;;;;;15.98;3.53;;;9.00;99.90;;;;;;5053480;28;20108;-62
2023/12/16 10:05:50;;;;;;;15.80;3.30;;;9.00;99.90;;;;;;5043416;28;21900;-61
2023/12/16 10:08:15;;;;;;;18.85;3.70;;;9.10;99.90;;;;;;5052815;28;20395;-62
2023/12/16 10:10:42;;;;;;;17.35;5.07;;;9.10;99.90;;;;;;5046917;28;20029;-61
2023/12/16 10:13:08;;;;;;;20.80;5.47;;;9.10;99.90;;;;;;5055896;28;20041;-62
2023/12/16 10:15:34;;;;;;;17.13;3.50;;;9.20;99.90;;;;;;5039922;28;20531;-61
2023/12/16 10:18:01;;;;;;;18.63;3.47;;;9.20;99.90;;;;;;5057477;28;20094;-61
2023/12/16 10:20:27;;;;;;;20.30;3.28;;;9.20;99.90;;;;;;5045122;28;20024;-61
2023/12/16 10:22:53;;;;;;;19.58;3.17;;;9.30;99.90;;;;;;5056619;28;20047;-61
2023/12/16 10:25:19;;;;;;;18.75;3.13;;;9.40;99.90;;;;;;5046483;28;20494;-60
2023/12/16 10:27:46;;;;;;;12.40;2.90;;;9.40;99.90;;;;;;5058942;28;20024;-61
2023/12/16 10:30:12;;;;;;;17.25;2.67;;;9.50;99.90;;;;;;5050515;28;20104;-63
2023/12/16 10:32:40;;;;;;;14.52;3.97;;;9.50;99.90;;;;;;5052535;28;20155;-60
2023/12/16 10:35:07;;;;;;;11.02;3.28;;;9.60;99.90;;;;;;5048405;28;20052;-60
2023/12/16 10:37:33;;;;;;;23.55;3.00;;;9.60;99.90;;;;;;5055757;28;20029;-61
2023/12/16 10:39:59;;;;;;;17.60;3.50;;;9.70;99.90;;;;;;5045652;28;20027;-60
2023/12/16 10:42:24;;;;;;;13.15;2.53;;;9.80;99.90;;;;;;5050595;28;20034;-60
2023/12/16 10:44:53;;;;;;;21.02;2.83;;;9.80;99.90;;;;;;5050535;28;20104;-62
2023/12/16 10:47:19;;;;;;;21.48;2.75;;;9.90;99.90;;;;;;5056050;28;20029;-61
2023/12/16 10:49:45;;;;;;;12.90;3.22;;;10.00;99.90;;;;;;5046291;28;20028;-61
2023/12/16 10:52:12;;;;;;;16.77;2.95;;;10.10;99.90;;;;;;5053252;28;20029;-62
2023/12/16 10:54:44;;;;;;;29.58;3.25;;;10.20;99.90;;;;;;5044626;28;20029;-62
2023/12/16 10:57:31;;;;;;;8.15;2.88;;;10.30;99.90;;;;;;5049330;28;20033;-61
2023/12/16 11:00:07;;;;;;;13.77;2.70;;;10.50;99.90;;;;;;5054385;28;20036;-62
2023/12/16 11:02:42;;;;;;;14.02;2.78;;;10.60;99.90;;;;;;5053669;28;20061;-62
2023/12/16 11:05:21;;;;;;;18.33;2.78;;;10.70;99.90;;;;;;5053814;28;20107;-62
2023/12/16 11:07:48;;;;;;;14.32;2.72;;;10.60;99.90;;;;;;5049123;28;20105;-61
2023/12/16 11:10:14;;;;;;;16.13;2.97;;;10.60;99.90;;;;;;5058219;28;20049;-60
2023/12/16 11:12:40;;;;;;;13.93;2.53;;;10.60;99.90;;;;;;5058517;28;20487;-60
2023/12/16 11:15:08;;;;;;;11.60;2.42;;;10.70;99.90;;;;;;5062083;28;20029;-61
2023/12/16 11:17:59;;;;;;;11.65;2.67;;;11.00;99.90;;;;;;5045556;28;20089;-61
2023/12/16 11:20:40;;;;;;;20.52;3.58;;;11.20;99.90;;;;;;5049067;28;20032;-60
2023/12/16 11:23:06;;;;;;;25.38;3.50;;;11.30;99.90;;;;;;5052706;28;20016;-61
2023/12/16 11:25:36;;;;;;;22.83;3.28;;;11.40;99.90;;;;;;5053979;28;20025;-61
2023/12/16 11:28:03;;;;;;;17.08;3.17;;;11.40;99.90;;;;;;5056754;28;20020;-61
2023/12/16 11:30:30;;;;;;;12.48;2.28;;;11.50;99.90;;;;;;5052251;28;20530;-58
2023/12/16 11:32:57;;;;;;;22.35;3.15;;;11.60;99.90;;;;;;5054057;28;20617;-61
2023/12/16 11:35:45;;;;;;;15.93;2.80;;;11.40;99.90;;;;;;5050311;28;20026;-62
2023/12/16 11:38:38;;;;;;;17.15;2.75;;;11.50;99.90;;;;;;5057831;28;20386;-61
2023/12/16 11:41:04;;;;;;;21.27;3.22;;;11.40;99.90;;;;;;5053262;28;20604;-62
2023/12/16 11:43:46;;;;;;;22.20;3.10;;;11.40;99.90;;;;;;5062364;28;20121;-61
2023/12/16 11:46:31;;;;;;;23.88;3.10;;;11.20;99.90;;;;;;5049728;28;20021;-61
2023/12/16 11:48:57;;;;;;;14.10;1.98;;;11.30;99.90;;;;;;5061003;28;20031;-61
2023/12/16 11:51:24;;;;;;;19.08;3.10;;;11.30;99.90;;;;;;5053702;28;20456;-62
2023/12/16 11:53:51;;;;;;;31.17;3.25;;;11.40;99.90;;;;;;5050217;28;20025;-62
2023/12/16 11:56:16;;;;;;;25.50;3.08;;;11.40;99.90;;;;;;5040670;28;20036;-62
2023/12/16 11:58:42;;;;;;;22.08;2.90;;;11.50;99.90;;;;;;5043785;28;20025;-59
2023/12/16 12:01:07;;;;;;;14.45;3.05;;;11.30;99.90;;;;;;5054043;28;20178;-62
2023/12/16 12:03:33;;;;;;;22.38;3.08;;;11.20;99.90;;;;;;5055208;28;20091;-61
2023/12/16 12:05:59;;;;;;;20.45;2.50;;;11.30;99.90;;;;;;5056639;28;20402;-62
2023/12/16 12:08:24;;;;;;;15.50;2.42;;;11.40;99.90;;;;;;5044251;28;20021;-61
2023/12/16 12:10:50;;;;;;;15.63;2.95;;;11.20;99.90;;;;;;5044282;28;20036;-60
2023/12/16 12:13:15;;;;;;;23.13;3.47;;;11.10;99.90;;;;;;5046679;28;20022;-62
2023/12/16 12:15:41;;;;;;;19.42;2.67;;;11.10;99.90;;;;;;5051663;28;20383;-61
2023/12/16 12:18:06;;;;;;;20.48;3.03;;;11.10;99.90;;;;;;5051472;28;20407;-61
2023/12/16 12:20:32;;;;;;;15.13;2.83;;;11.20;99.90;;;;;;5057726;28;20032;-59
2023/12/16 12:22:58;;;;;;;19.98;3.13;;;11.20;99.90;;;;;;5051991;28;20389;-61
2023/12/16 12:25:24;;;;;;;15.77;3.08;;;11.20;99.90;;;;;;5053354;28;20031;-62
2023/12/16 12:27:49;;;;;;;19.65;3.08;;;11.30;99.90;;;;;;5050933;28;20079;-62
2023/12/16 12:30:18;;;;;;;24.23;3.05;;;11.30;99.90;;;;;;5054559;28;20033;-62
2023/12/16 12:32:44;;;;;;;23.70;3.00;;;11.40;99.90;;;;;;5049684;28;20031;-61
2023/12/16 12:35:11;;;;;;;21.75;3.03;;;11.40;99.90;;;;;;5049034;28;20025;-60
2023/12/16 12:37:38;;;;;;;30.40;3.00;;;11.30;99.90;;;;;;5051245;28;20480;-62
2023/12/16 12:40:14;;;;;;;19.05;3.17;;;11.30;99.90;;;;;;5049851;28;20109;-63